createdAt,value
2018-11-06T00:00:10.401Z,18.3
2018-11-06T00:01:00.883Z,18.3
2018-11-06T00:01:51.630Z,18.3
2018-11-06T00:02:40.802Z,18.3
2018-11-06T00:03:31.446Z,18.3
2018-11-06T00:04:21.316Z,18.3
2018-11-06T00:05:11.784Z,18.3
2018-11-06T00:06:00.048Z,18.3
2018-11-06T00:06:50.683Z,18.3
2018-11-06T00:25:08.060Z,18.3
2018-11-06T00:25:58.429Z,18.3
2018-11-06T00:26:48.337Z,18.3
2018-11-06T00:27:38.158Z,18.3
2018-11-06T00:28:28.381Z,18.3
2018-11-06T00:29:17.928Z,18.3
2018-11-06T00:30:08.226Z,18.3
2018-11-06T00:30:58.262Z,18.3
2018-11-06T00:31:48.160Z,18.3
2018-11-06T00:32:39.263Z,18.3
2018-11-06T00:33:27.427Z,18.3
2018-11-06T00:34:19.414Z,18.3
2018-11-06T00:35:08.848Z,18.3
2018-11-06T00:35:58.994Z,18.3
2018-11-06T00:36:49.252Z,18.3
2018-11-06T00:37:38.544Z,18.3
2018-11-06T00:38:27.389Z,18.3
2018-11-06T00:39:18.882Z,18.3
2018-11-06T00:40:08.447Z,18.3
2018-11-06T00:40:58.519Z,18.3
2018-11-06T00:41:48.852Z,18.3
2018-11-06T00:42:38.223Z,18.3
2018-11-06T00:43:28.526Z,18.3
2018-11-06T00:44:19.628Z,18.3
2018-11-06T00:45:08.811Z,18.3
2018-11-06T00:45:59.376Z,18.3
2018-11-06T00:46:47.623Z,18.3
2018-11-06T00:47:38.803Z,18.3
2018-11-06T00:48:28.883Z,18.3
2018-11-06T00:49:19.118Z,18.2
2018-11-06T00:50:08.896Z,18.3
2018-11-06T00:50:59.755Z,18.3
2018-11-06T00:51:50.599Z,18.3
2018-11-06T00:52:38.703Z,18.3
2018-11-06T00:53:28.747Z,18.3
2018-11-06T00:54:18.880Z,18.3
2018-11-06T00:55:10.083Z,18.3
2018-11-06T00:56:00.135Z,18.3
2018-11-06T00:56:50.390Z,18.3
2018-11-06T00:57:40.876Z,18.3
2018-11-06T00:58:29.943Z,18.3
2018-11-06T00:59:19.970Z,18.3
2018-11-06T01:00:09.847Z,18.2
2018-11-06T01:01:00.528Z,18.3
2018-11-06T01:01:50.987Z,18.3
2018-11-06T01:02:40.282Z,18.3
2018-11-06T01:03:30.690Z,18.3
2018-11-06T01:04:20.991Z,18.3
2018-11-06T01:05:10.455Z,18.2
2018-11-06T01:06:00.373Z,18.3
2018-11-06T01:06:50.759Z,18.2
2018-11-06T01:07:40.944Z,18.3
2018-11-06T01:08:31.857Z,18.3
2018-11-06T01:09:21.052Z,18.3
2018-11-06T01:10:10.943Z,18.3
2018-11-06T01:11:01.262Z,18.3
2018-11-06T01:11:51.548Z,18.3
2018-11-06T01:12:41.610Z,18.3
2018-11-06T01:13:31.634Z,18.3
2018-11-06T01:14:21.297Z,18.3
2018-11-06T01:15:12.279Z,18.3
2018-11-06T01:16:01.819Z,18.2
2018-11-06T01:16:51.614Z,18.2
2018-11-06T01:17:41.156Z,18.3
2018-11-06T01:18:31.627Z,18.3
2018-11-06T01:19:21.304Z,18.2
2018-11-06T01:20:11.859Z,18.3
2018-11-06T01:21:01.519Z,18.3
2018-11-06T01:21:52.254Z,18.2
2018-11-06T01:22:42.316Z,18.3
2018-11-06T01:23:31.803Z,18.3
2018-11-06T01:24:21.378Z,18.3
2018-11-06T01:25:10.741Z,18.3
2018-11-06T01:26:02.639Z,18.3
2018-11-06T01:26:52.067Z,18.3
2018-11-06T01:27:42.431Z,18.3
2018-11-06T01:28:33.031Z,18.3
2018-11-06T01:29:21.414Z,18.3
2018-11-06T01:30:12.323Z,18.3
2018-11-06T01:31:02.123Z,18.2
2018-11-06T01:31:51.833Z,18.3
2018-11-06T01:32:43.085Z,18.3
2018-11-06T01:33:33.620Z,18.3
2018-11-06T01:34:22.877Z,18.2
2018-11-06T01:35:13.217Z,18.3
2018-11-06T01:36:03.105Z,18.3
2018-11-06T01:36:53.065Z,18.3
2018-11-06T01:37:42.852Z,18.3
2018-11-06T01:38:33.412Z,18.3
2018-11-06T01:39:22.778Z,18.2
2018-11-06T01:40:13.898Z,18.3
2018-11-06T01:41:02.547Z,18.3
2018-11-06T01:41:53.422Z,18.3
2018-11-06T01:42:43.885Z,18.2
2018-11-06T01:43:34.515Z,18.2
2018-11-06T01:44:23.262Z,18.3
2018-11-06T01:45:13.773Z,18.3
2018-11-06T01:46:03.772Z,18.2
2018-11-06T01:46:52.933Z,18.2
2018-11-06T01:47:44.443Z,18.3
2018-11-06T01:48:33.707Z,18.2
2018-11-06T01:49:23.534Z,18.3
2018-11-06T01:50:13.073Z,18.2
2018-11-06T01:51:03.739Z,18.2
2018-11-06T01:51:53.551Z,18.2
2018-11-06T01:52:43.920Z,18.2
2018-11-06T01:53:34.572Z,18.2
2018-11-06T01:54:24.604Z,18.2
2018-11-06T01:55:14.377Z,18.2
2018-11-06T01:56:05.771Z,18.2
2018-11-06T01:56:53.852Z,18.2
2018-11-06T01:57:43.918Z,18.2
2018-11-06T01:58:33.445Z,18.2
2018-11-06T01:59:24.282Z,18.2
2018-11-06T02:00:15.344Z,18.2
2018-11-06T02:01:05.057Z,18.2
2018-11-06T02:01:55.457Z,18.2
2018-11-06T02:02:44.161Z,18.2
2018-11-06T02:03:34.750Z,18.2
2018-11-06T02:04:25.379Z,18.2
2018-11-06T02:05:14.669Z,18.2
2018-11-06T02:06:05.716Z,18.2
2018-11-06T02:06:55.551Z,18.2
2018-11-06T02:07:44.831Z,18.2
2018-11-06T02:08:35.201Z,18.2
2018-11-06T02:09:25.011Z,18.2
2018-11-06T02:10:14.773Z,18.2
2018-11-06T02:11:05.558Z,18.2
2018-11-06T02:11:54.361Z,18.2
2018-11-06T02:12:44.868Z,18.2
2018-11-06T02:13:35.486Z,18.2
2018-11-06T02:14:25.566Z,18.2
2018-11-06T02:15:15.163Z,18.2
2018-11-06T02:16:05.105Z,18.2
2018-11-06T02:16:54.875Z,18.2
2018-11-06T02:17:45.918Z,18.2
2018-11-06T02:18:36.415Z,18.2
2018-11-06T02:19:26.520Z,18.2
2018-11-06T02:20:16.044Z,18.2
2018-11-06T02:21:05.962Z,18.2
2018-11-06T02:21:56.447Z,18.2
2018-11-06T02:22:47.225Z,18.2
2018-11-06T02:23:34.840Z,18.2
2018-11-06T02:24:26.001Z,18.2
2018-11-06T02:25:16.647Z,18.2
2018-11-06T02:26:05.779Z,18.2
2018-11-06T02:26:56.189Z,18.2
2018-11-06T02:27:46.840Z,18.1
2018-11-06T02:28:36.670Z,18.2
2018-11-06T02:29:27.037Z,18.1
2018-11-06T02:30:17.008Z,18.2
2018-11-06T02:31:06.073Z,18.2
2018-11-06T02:31:58.192Z,18.2
2018-11-06T02:32:47.468Z,18.1
2018-11-06T02:33:36.210Z,18.2
2018-11-06T02:34:26.827Z,18.1
2018-11-06T02:35:17.679Z,18.2
2018-11-06T02:36:07.455Z,18.1
2018-11-06T02:36:57.228Z,18.1
2018-11-06T02:37:46.708Z,18.1
2018-11-06T02:38:37.297Z,18.2
2018-11-06T02:39:27.644Z,18.1
2018-11-06T02:40:17.729Z,18.2
2018-11-06T02:41:07.649Z,18.1
2018-11-06T02:41:57.316Z,18.1
2018-11-06T02:42:47.819Z,18.2
2018-11-06T02:43:38.158Z,18.1
2018-11-06T02:44:27.751Z,18.1
2018-11-06T02:45:17.844Z,18.1
2018-11-06T02:46:07.681Z,18.1
2018-11-06T02:46:58.198Z,18.1
2018-11-06T02:47:48.003Z,18.1
2018-11-06T02:48:38.034Z,18.1
2018-11-06T02:49:27.569Z,18.1
2018-11-06T02:50:18.008Z,18.1
2018-11-06T02:51:07.979Z,18.1
2018-11-06T02:51:58.892Z,18.1
2018-11-06T02:52:48.468Z,18.1
2018-11-06T02:53:38.437Z,18.1
2018-11-06T02:54:28.283Z,18.1
2018-11-06T02:55:18.831Z,18.1
2018-11-06T02:56:08.999Z,18.1
2018-11-06T02:56:58.959Z,18.1
2018-11-06T02:57:48.863Z,18.2
2018-11-06T02:58:39.346Z,18.1
2018-11-06T02:59:28.385Z,18.1
2018-11-06T03:00:19.458Z,18.1
2018-11-06T03:01:08.353Z,18.1
2018-11-06T03:01:58.596Z,18.1
2018-11-06T03:02:48.906Z,18.1
2018-11-06T03:03:38.176Z,18.1
2018-11-06T03:04:28.127Z,18.1
2018-11-06T03:05:19.770Z,18.1
2018-11-06T03:06:09.550Z,18.1
2018-11-06T03:06:59.690Z,18.1
2018-11-06T03:07:50.470Z,18.1
2018-11-06T03:08:39.228Z,18.1
2018-11-06T03:09:30.400Z,18.1
2018-11-06T03:10:20.656Z,18.1
2018-11-06T03:11:09.212Z,18.1
2018-11-06T03:12:00.328Z,18.1
2018-11-06T03:12:49.822Z,18.1
2018-11-06T03:13:39.443Z,18.1
2018-11-06T03:14:29.836Z,18.1
2018-11-06T03:15:19.722Z,18.1
2018-11-06T03:16:09.850Z,18.1
2018-11-06T03:17:00.094Z,18.1
2018-11-06T03:17:49.865Z,18.1
2018-11-06T03:18:40.387Z,18.1
2018-11-06T03:19:30.325Z,18.1
2018-11-06T03:20:20.417Z,18.1
2018-11-06T03:21:10.819Z,18.1
2018-11-06T03:22:00.155Z,18.1
2018-11-06T03:22:51.089Z,18.1
2018-11-06T03:23:41.392Z,18.1
2018-11-06T03:24:30.424Z,18.1
2018-11-06T03:25:21.009Z,18.1
2018-11-06T03:26:10.512Z,18.1
2018-11-06T03:27:01.732Z,18.1
2018-11-06T03:27:50.020Z,18.1
2018-11-06T03:28:41.239Z,18.1
2018-11-06T03:29:30.971Z,18.1
2018-11-06T03:30:20.297Z,18.1
2018-11-06T03:31:10.588Z,18.1
2018-11-06T03:32:01.474Z,18.1
2018-11-06T03:32:51.104Z,18.1
2018-11-06T03:33:41.644Z,18.1
2018-11-06T03:34:29.907Z,18.1
2018-11-06T03:35:20.973Z,18.1
2018-11-06T03:36:10.669Z,18.1
2018-11-06T03:37:01.421Z,18.1
2018-11-06T03:37:51.143Z,18.1
2018-11-06T03:38:41.208Z,18.1
2018-11-06T03:39:31.626Z,18.1
2018-11-06T03:40:20.749Z,18.1
2018-11-06T03:41:11.703Z,18.1
2018-11-06T03:42:01.668Z,18.1
2018-11-06T03:42:51.938Z,18.1
2018-11-06T03:43:41.606Z,18.1
2018-11-06T03:44:31.056Z,18.1
2018-11-06T03:45:22.470Z,18.1
2018-11-06T03:46:13.085Z,18.1
2018-11-06T03:47:02.361Z,18.1
2018-11-06T03:47:52.015Z,18.1
2018-11-06T03:48:43.193Z,18.1
2018-11-06T03:49:32.530Z,18.1
2018-11-06T03:50:22.326Z,18.1
2018-11-06T03:51:12.341Z,18.1
2018-11-06T03:52:02.155Z,18.1
2018-11-06T03:52:52.685Z,18.1
2018-11-06T03:53:41.897Z,18.1
2018-11-06T03:54:33.120Z,18.1
2018-11-06T03:55:21.947Z,18.1
2018-11-06T03:56:12.648Z,18.1
2018-11-06T03:57:02.709Z,18.1
2018-11-06T03:57:53.038Z,18.1
2018-11-06T03:58:42.920Z,18.1
2018-11-06T03:59:32.977Z,18.1
2018-11-06T04:00:22.258Z,18.1
2018-11-06T04:01:12.780Z,18.1
2018-11-06T04:02:02.873Z,18.1
2018-11-06T04:02:52.757Z,18.1
2018-11-06T04:03:42.944Z,18.1
2018-11-06T04:04:32.461Z,18.1
2018-11-06T04:05:23.860Z,18.1
2018-11-06T04:06:13.410Z,18.1
2018-11-06T04:07:03.809Z,18
2018-11-06T04:07:53.497Z,18
2018-11-06T04:08:43.561Z,18.1
2018-11-06T04:09:33.577Z,18.1
2018-11-06T04:10:24.383Z,18.1
2018-11-06T04:11:14.588Z,18.1
2018-11-06T04:12:04.036Z,18
2018-11-06T04:12:53.576Z,18
2018-11-06T04:13:44.184Z,18.1
2018-11-06T04:14:33.534Z,18.1
2018-11-06T04:15:24.206Z,18
2018-11-06T04:16:14.686Z,18
2018-11-06T04:17:04.716Z,18.1
2018-11-06T04:17:55.384Z,18.1
2018-11-06T04:18:44.024Z,18.1
2018-11-06T04:19:33.484Z,18.1
2018-11-06T04:20:24.162Z,18.1
2018-11-06T04:21:14.196Z,18.1
2018-11-06T04:22:04.882Z,18.1
2018-11-06T04:22:55.131Z,18.1
2018-11-06T04:23:45.293Z,18
2018-11-06T04:24:35.560Z,18
2018-11-06T04:25:26.038Z,18
2018-11-06T04:26:15.223Z,18.1
2018-11-06T04:27:04.727Z,18
2018-11-06T04:27:54.729Z,18
2018-11-06T04:28:45.068Z,18
2018-11-06T04:29:35.355Z,18.1
2018-11-06T04:30:25.973Z,18.1
2018-11-06T04:31:15.171Z,18
2018-11-06T04:32:05.208Z,18
2018-11-06T04:32:56.178Z,18
2018-11-06T04:33:45.449Z,18
2018-11-06T04:34:35.423Z,18
2018-11-06T04:35:25.835Z,18
2018-11-06T04:36:16.158Z,18
2018-11-06T04:54:16.567Z,17.9
2018-11-06T04:55:07.935Z,17.9
2018-11-06T04:55:56.564Z,17.9
2018-11-06T04:56:48.030Z,17.9
2018-11-06T04:57:38.094Z,17.9
2018-11-06T04:58:27.812Z,17.9
2018-11-06T04:59:18.550Z,17.9
2018-11-06T05:00:07.264Z,17.9
2018-11-06T05:00:58.139Z,17.9
2018-11-06T05:01:47.147Z,17.9
2018-11-06T05:02:36.824Z,17.9
2018-11-06T05:03:27.391Z,17.9
2018-11-06T05:04:16.654Z,17.8
2018-11-06T05:05:08.062Z,17.8
2018-11-06T05:05:58.294Z,17.7
2018-11-06T05:06:49.052Z,17.7
2018-11-06T05:07:39.341Z,17.6
2018-11-06T05:08:28.672Z,17.6
2018-11-06T05:09:18.691Z,17.6
2018-11-06T05:10:08.954Z,17.5
2018-11-06T05:10:59.951Z,17.5
2018-11-06T05:11:48.603Z,17.5
2018-11-06T05:12:38.409Z,17.4
2018-11-06T05:13:43.922Z,17.4
2018-11-06T05:14:19.974Z,17.4
2018-11-06T05:15:23.668Z,17.4
2018-11-06T05:15:58.353Z,17.5
2018-11-06T05:16:49.520Z,17.5
2018-11-06T05:17:38.947Z,17.5
2018-11-06T05:18:29.291Z,17.5
2018-11-06T05:19:19.738Z,17.6
2018-11-06T05:20:09.422Z,17.6
2018-11-06T05:21:00.031Z,17.6
2018-11-06T05:21:49.230Z,17.6
2018-11-06T05:22:39.403Z,17.7
2018-11-06T05:23:30.127Z,17.7
2018-11-06T05:24:19.171Z,17.7
2018-11-06T05:25:10.934Z,17.7
2018-11-06T05:26:14.274Z,17.7
2018-11-06T05:26:49.710Z,17.8
2018-11-06T05:27:41.093Z,17.8
2018-11-06T05:28:30.454Z,17.8
2018-11-06T05:29:19.675Z,17.8
2018-11-06T05:30:10.315Z,17.8
2018-11-06T05:31:00.870Z,17.8
2018-11-06T05:31:50.768Z,17.8
2018-11-06T05:32:39.516Z,17.8
2018-11-06T09:08:47.370Z,17.9
2018-11-06T09:09:36.202Z,17.9
2018-11-06T09:10:27.863Z,17.9
2018-11-06T09:11:16.164Z,17.9
2018-11-06T09:12:07.143Z,17.9
2018-11-06T09:12:57.082Z,17.9
2018-11-06T09:13:47.704Z,17.9
2018-11-06T09:14:37.184Z,17.9
2018-11-06T09:15:26.724Z,17.9
2018-11-06T09:16:17.322Z,17.9
2018-11-06T09:17:08.840Z,17.9
2018-11-06T09:17:57.241Z,17.9
2018-11-06T09:18:47.286Z,17.9
2018-11-06T09:19:36.931Z,17.9
2018-11-06T09:20:27.048Z,17.9
2018-11-06T09:21:17.391Z,17.9
2018-11-06T09:22:07.696Z,17.9
2018-11-06T09:22:57.499Z,17.9
2018-11-06T09:23:47.590Z,17.9
2018-11-06T09:24:37.493Z,17.9
2018-11-06T09:25:27.795Z,17.9
2018-11-06T09:26:17.215Z,17.9
2018-11-06T09:27:07.300Z,17.9
2018-11-06T09:27:57.736Z,17.9
2018-11-06T09:28:48.553Z,17.9
2018-11-06T09:29:53.213Z,17.9
2018-11-06T09:30:28.662Z,17.9
2018-11-06T09:31:18.439Z,17.9
2018-11-06T09:32:07.398Z,17.9
2018-11-06T09:32:59.186Z,17.9
2018-11-06T09:33:48.048Z,17.9
2018-11-06T09:34:38.903Z,17.9
2018-11-06T09:35:28.945Z,17.9
2018-11-06T09:36:18.143Z,17.9
2018-11-06T09:37:08.711Z,17.9
2018-11-06T09:37:58.458Z,17.9
2018-11-06T09:38:48.347Z,17.9
2018-11-06T09:39:39.062Z,17.9
2018-11-06T09:41:19.845Z,17.9
2018-11-06T09:42:09.272Z,17.9
2018-11-06T09:42:59.483Z,17.9
2018-11-06T09:43:48.267Z,17.9
2018-11-06T09:44:38.756Z,17.9
2018-11-06T09:45:30.012Z,17.9
2018-11-06T09:46:18.597Z,17.9
2018-11-06T09:47:09.135Z,17.9
2018-11-06T09:47:59.074Z,17.9
2018-11-06T09:48:49.628Z,17.9
2018-11-06T09:49:38.834Z,17.9
2018-11-06T09:50:28.999Z,17.9
2018-11-06T09:51:18.709Z,17.9
2018-11-06T09:52:11.858Z,17.9
2018-11-06T09:52:59.607Z,17.9
2018-11-06T09:53:50.139Z,17.9
2018-11-06T09:54:40.052Z,17.9
2018-11-06T09:55:29.469Z,17.9
2018-11-06T09:56:19.626Z,17.9
2018-11-06T09:57:09.931Z,17.9
2018-11-06T09:57:59.786Z,17.9
2018-11-06T09:58:49.405Z,17.9
2018-11-06T09:59:40.679Z,17.9
2018-11-06T10:00:30.449Z,17.9
2018-11-06T10:01:20.655Z,17.9
2018-11-06T10:02:10.280Z,17.9
2018-11-06T10:03:00.689Z,17.9
2018-11-06T10:03:50.646Z,17.9
2018-11-06T10:04:39.849Z,17.9
2018-11-06T10:05:30.329Z,17.9
2018-11-06T10:06:22.659Z,17.9
2018-11-06T10:07:15.911Z,17.9
2018-11-06T10:08:01.657Z,17.9
2018-11-06T10:08:50.785Z,17.9
2018-11-06T10:09:41.219Z,17.9
2018-11-06T10:10:31.036Z,17.9
2018-11-06T10:11:22.029Z,17.9
2018-11-06T10:12:11.088Z,17.9
2018-11-06T10:13:01.886Z,17.9
2018-11-06T10:13:52.639Z,17.9
2018-11-06T10:14:40.916Z,17.9
2018-11-06T10:15:32.264Z,17.9
2018-11-06T10:16:21.323Z,17.9
2018-11-06T10:17:10.570Z,17.9
2018-11-06T10:18:02.105Z,17.9
2018-11-06T10:18:50.780Z,17.9
2018-11-06T10:19:41.912Z,17.9
2018-11-06T10:20:31.754Z,17.9
2018-11-06T10:21:23.043Z,17.9
2018-11-06T10:22:12.135Z,17.9
2018-11-06T10:23:01.368Z,17.9
2018-11-06T10:23:51.840Z,17.9
2018-11-06T10:24:42.000Z,17.9
2018-11-06T10:25:32.619Z,17.9
2018-11-06T10:26:22.637Z,17.9
2018-11-06T10:27:12.007Z,17.9
2018-11-06T10:28:01.912Z,17.9
2018-11-06T10:28:52.684Z,17.9
2018-11-06T10:29:42.580Z,17.9
2018-11-06T10:30:32.451Z,17.9
2018-11-06T10:31:21.840Z,17.9
2018-11-06T10:32:12.823Z,17.9
2018-11-06T10:33:02.659Z,17.9
2018-11-06T10:33:53.542Z,17.9
2018-11-06T10:34:42.397Z,17.9
2018-11-06T10:35:32.310Z,17.9
2018-11-06T10:36:23.475Z,17.9
2018-11-06T10:37:12.394Z,17.9
2018-11-06T10:38:02.519Z,17.9
2018-11-06T10:38:52.464Z,17.9
2018-11-06T10:39:43.221Z,17.9
2018-11-06T10:40:33.323Z,17.9
2018-11-06T10:41:22.624Z,17.9
2018-11-06T10:42:13.116Z,17.9
2018-11-06T10:43:03.129Z,17.9
2018-11-06T10:43:54.180Z,17.9
2018-11-06T10:44:43.561Z,17.9
2018-11-06T10:45:33.497Z,17.9
2018-11-06T10:46:23.356Z,17.9
2018-11-06T10:47:13.614Z,17.9
2018-11-06T10:48:02.816Z,17.9
2018-11-06T10:48:53.749Z,17.9
2018-11-06T10:49:43.891Z,17.9
2018-11-06T10:50:33.964Z,17.9
2018-11-06T10:51:24.603Z,17.9
2018-11-06T10:52:14.049Z,17.9
2018-11-06T10:53:03.161Z,17.9
2018-11-06T10:53:52.643Z,17.9
2018-11-06T10:54:44.541Z,17.9
2018-11-06T10:55:33.893Z,17.9
2018-11-06T10:56:24.584Z,17.9
2018-11-06T10:57:14.679Z,17.9
2018-11-06T10:58:04.464Z,17.9
2018-11-06T10:58:54.118Z,17.9
2018-11-06T10:59:44.091Z,17.9
2018-11-06T11:00:34.605Z,17.9
2018-11-06T11:01:25.086Z,17.9
2018-11-06T11:02:14.848Z,17.9
2018-11-06T11:03:04.758Z,17.9
2018-11-06T11:03:55.604Z,17.9
2018-11-06T11:04:45.040Z,17.9
2018-11-06T11:05:34.837Z,17.9
2018-11-06T11:06:24.540Z,17.9
2018-11-06T11:07:14.510Z,17.9
2018-11-06T11:08:05.037Z,17.9
2018-11-06T11:08:55.295Z,17.9
2018-11-06T11:09:44.843Z,17.9
2018-11-06T11:10:35.292Z,17.9
2018-11-06T11:11:25.802Z,17.9
2018-11-06T11:12:13.713Z,17.9
2018-11-06T11:13:06.091Z,17.9
2018-11-06T11:13:55.069Z,17.9
2018-11-06T11:14:45.345Z,17.9
2018-11-06T11:15:36.242Z,17.9
2018-11-06T11:16:26.687Z,17.9
2018-11-06T11:17:15.321Z,17.9
2018-11-06T11:18:04.789Z,17.9
2018-11-06T11:18:55.984Z,17.9
2018-11-06T11:19:44.909Z,17.9
2018-11-06T11:20:35.894Z,17.9
2018-11-06T11:21:26.014Z,17.9
2018-11-06T11:22:16.569Z,17.9
2018-11-06T11:23:05.799Z,17.9
2018-11-06T11:23:55.888Z,17.9
2018-11-06T11:24:46.137Z,17.9
2018-11-06T11:25:37.391Z,17.9
2018-11-06T11:26:26.006Z,17.9
2018-11-06T11:27:16.961Z,17.9
2018-11-06T11:28:05.791Z,17.9
2018-11-06T11:28:56.882Z,17.9
2018-11-06T11:29:45.901Z,17.9
2018-11-06T11:30:36.286Z,17.9
2018-11-06T11:31:27.416Z,17.9
2018-11-06T11:32:17.382Z,17.9
2018-11-06T11:33:07.296Z,17.9
2018-11-06T11:33:57.516Z,17.9
2018-11-06T11:34:46.501Z,17.9
2018-11-06T11:35:36.468Z,17.9
2018-11-06T11:36:27.766Z,17.9
2018-11-06T11:37:17.816Z,17.9
2018-11-06T11:38:06.677Z,17.9
2018-11-06T11:38:57.088Z,17.9
2018-11-06T11:39:48.208Z,17.9
2018-11-06T11:40:37.163Z,17.9
2018-11-06T11:41:28.485Z,17.9
2018-11-06T11:42:18.136Z,17.9
2018-11-06T11:43:06.987Z,17.9
2018-11-06T11:43:57.490Z,17.9
2018-11-06T11:44:46.730Z,17.9
2018-11-06T11:45:37.425Z,17.9
2018-11-06T11:46:27.488Z,17.9
2018-11-06T11:47:17.475Z,17.9
2018-11-06T11:48:07.690Z,17.9
2018-11-06T11:48:57.913Z,17.9
2018-11-06T11:49:48.117Z,17.9
2018-11-06T11:50:37.920Z,17.9
2018-11-06T11:51:27.317Z,17.9
2018-11-06T11:52:18.618Z,17.9
2018-11-06T11:53:08.389Z,17.9
2018-11-06T11:53:58.073Z,17.9
2018-11-06T11:54:48.521Z,17.9
2018-11-06T11:55:38.983Z,17.9
2018-11-06T11:56:28.962Z,17.9
2018-11-06T11:57:18.615Z,17.9
2018-11-06T11:58:08.542Z,17.9
2018-11-06T11:58:58.950Z,17.9
2018-11-06T11:59:49.405Z,17.9
2018-11-06T12:00:38.820Z,17.9
2018-11-06T12:01:29.100Z,17.9
2018-11-06T12:02:20.736Z,17.9
2018-11-06T12:03:07.859Z,17.9
2018-11-06T12:03:59.469Z,17.9
2018-11-06T12:04:48.474Z,17.9
2018-11-06T12:05:38.649Z,17.9
2018-11-06T12:06:29.424Z,17.9
2018-11-06T12:07:19.707Z,17.9
2018-11-06T12:08:09.985Z,17.9
2018-11-06T12:08:59.349Z,17.9
2018-11-06T12:09:49.991Z,17.9
2018-11-06T12:10:40.266Z,17.9
2018-11-06T12:11:30.189Z,17.9
2018-11-06T12:12:20.925Z,17.9
2018-11-06T12:13:10.458Z,17.9
2018-11-06T12:14:00.551Z,17.9
2018-11-06T12:14:50.024Z,17.9
2018-11-06T12:15:39.270Z,17.9
2018-11-06T12:16:30.669Z,17.9
2018-11-06T12:17:21.095Z,17.9
2018-11-06T12:18:10.346Z,17.9
2018-11-06T12:19:00.529Z,17.9
2018-11-06T12:19:49.957Z,17.9
2018-11-06T12:20:40.864Z,17.9
2018-11-06T12:21:30.285Z,17.9
2018-11-06T12:22:19.188Z,17.9
2018-11-06T12:23:11.395Z,17.9
2018-11-06T12:24:00.757Z,17.9
2018-11-06T12:24:52.705Z,17.9
2018-11-06T12:25:43.236Z,17.9
2018-11-06T12:26:30.803Z,17.9
2018-11-06T12:27:21.169Z,17.9
2018-11-06T12:28:10.455Z,17.9
2018-11-06T12:29:00.655Z,17.9
2018-11-06T12:29:51.033Z,17.9
2018-11-06T12:30:41.421Z,17.9
2018-11-06T12:31:31.592Z,17.9
2018-11-06T12:32:21.474Z,17.9
2018-11-06T12:33:11.455Z,17.9
2018-11-06T12:34:02.273Z,17.9
2018-11-06T12:34:51.938Z,17.9
2018-11-06T12:35:42.086Z,17.9
2018-11-06T12:36:32.592Z,17.9
2018-11-06T12:37:22.213Z,17.9
2018-11-06T12:38:11.115Z,17.9
2018-11-06T12:39:01.240Z,17.9
2018-11-06T12:39:52.212Z,17.9
2018-11-06T12:40:41.778Z,17.9
2018-11-06T12:41:32.479Z,17.9
2018-11-06T12:42:21.539Z,17.9
2018-11-06T12:43:12.551Z,17.9
2018-11-06T12:44:01.787Z,17.9
2018-11-06T12:44:50.921Z,17.9
2018-11-06T12:45:42.072Z,17.9
2018-11-06T12:46:31.785Z,17.9
2018-11-06T12:47:21.702Z,17.9
2018-11-06T12:48:11.494Z,17.9
2018-11-06T12:49:02.577Z,17.9
2018-11-06T12:49:52.373Z,17.9
2018-11-06T12:50:42.138Z,17.9
2018-11-06T12:51:32.928Z,17.9
2018-11-06T12:52:22.504Z,17.9
2018-11-06T12:53:12.274Z,17.9
2018-11-06T12:54:02.634Z,17.9
2018-11-06T12:54:53.075Z,17.9
2018-11-06T12:55:42.134Z,17.9
2018-11-06T12:56:33.279Z,17.9
2018-11-06T12:57:23.496Z,17.9
2018-11-06T12:58:14.014Z,17.9
2018-11-06T12:59:03.534Z,17.9
2018-11-06T12:59:52.814Z,17.9
2018-11-06T13:00:43.716Z,18
2018-11-06T13:01:33.113Z,17.9
2018-11-06T13:02:23.316Z,17.9
2018-11-06T13:03:13.643Z,17.9
2018-11-06T13:04:03.093Z,17.9
2018-11-06T13:04:53.789Z,18
2018-11-06T13:05:42.669Z,17.9
2018-11-06T13:06:33.881Z,17.9
2018-11-06T13:07:23.428Z,18
2018-11-06T13:08:13.666Z,17.9
2018-11-06T13:09:04.040Z,18
2018-11-06T13:09:55.260Z,17.9
2018-11-06T13:10:44.943Z,18
2018-11-06T13:11:33.756Z,17.9
2018-11-06T13:12:24.527Z,17.9
2018-11-06T13:13:13.302Z,17.9
2018-11-06T13:14:04.136Z,18
2018-11-06T13:14:59.321Z,18
2018-11-06T13:15:46.109Z,17.9
2018-11-06T13:16:35.613Z,18
2018-11-06T13:17:24.639Z,18
2018-11-06T13:18:13.860Z,18
2018-11-06T13:19:04.239Z,17.9
2018-11-06T13:19:54.552Z,18
2018-11-06T13:20:44.779Z,18
2018-11-06T13:21:35.175Z,18
2018-11-06T13:22:24.363Z,18
2018-11-06T13:23:15.634Z,18
2018-11-06T13:24:05.042Z,17.9
2018-11-06T13:24:55.077Z,18
2018-11-06T13:25:45.992Z,18
2018-11-06T13:26:36.140Z,18
2018-11-06T13:27:25.704Z,18
2018-11-06T13:28:14.806Z,18
2018-11-06T13:29:05.492Z,18
2018-11-06T13:29:55.942Z,18
2018-11-06T13:30:46.107Z,18
2018-11-06T13:31:35.339Z,18
2018-11-06T13:32:27.102Z,18
2018-11-06T13:33:15.722Z,18
2018-11-06T13:34:05.462Z,18
2018-11-06T13:34:56.675Z,18
2018-11-06T13:35:46.334Z,18
2018-11-06T13:36:36.299Z,18
2018-11-06T13:37:25.346Z,18
2018-11-06T13:38:16.959Z,18
2018-11-06T13:39:05.974Z,18
2018-11-06T13:39:57.104Z,18
2018-11-06T13:40:46.284Z,18
2018-11-06T13:41:36.707Z,18
2018-11-06T13:42:25.690Z,18
2018-11-06T13:43:17.300Z,18
2018-11-06T13:44:09.409Z,18
2018-11-06T13:44:58.559Z,18
2018-11-06T13:45:48.613Z,18
2018-11-06T13:46:36.491Z,18
2018-11-06T13:47:26.620Z,18
2018-11-06T13:48:16.288Z,18
2018-11-06T13:49:07.301Z,18
2018-11-06T13:49:56.729Z,18
2018-11-06T14:07:37.710Z,18
2018-11-06T14:08:26.847Z,18
2018-11-06T14:09:16.748Z,18
2018-11-06T14:10:07.686Z,18
2018-11-06T14:10:57.744Z,18
2018-11-06T14:11:47.333Z,18
2018-11-06T14:12:37.030Z,18
2018-11-06T14:13:27.490Z,18
2018-11-06T14:14:17.802Z,18
2018-11-06T14:15:08.401Z,18
2018-11-06T14:15:57.515Z,18
2018-11-06T14:16:48.332Z,18
2018-11-06T14:17:37.813Z,18
2018-11-06T14:18:27.918Z,18
2018-11-06T14:19:18.633Z,18
2018-11-06T14:20:08.700Z,18
2018-11-06T14:20:57.978Z,18
2018-11-06T14:21:48.896Z,18
2018-11-06T14:22:38.379Z,18
2018-11-06T14:23:28.231Z,18
2018-11-06T14:24:19.299Z,18
2018-11-06T14:25:08.501Z,18
2018-11-06T14:25:58.723Z,18
2018-11-06T14:26:48.656Z,18
2018-11-06T14:27:40.426Z,18
2018-11-06T14:28:29.457Z,18
2018-11-06T14:29:18.280Z,18
2018-11-06T14:30:09.748Z,18
2018-11-06T14:30:58.850Z,18
2018-11-06T14:31:49.490Z,18.1
2018-11-06T14:32:38.937Z,18
2018-11-06T14:33:28.206Z,18
2018-11-06T14:34:18.015Z,18
2018-11-06T14:35:08.750Z,18
2018-11-06T14:36:02.046Z,18.1
2018-11-06T14:36:49.126Z,18
2018-11-06T14:37:38.252Z,18.1
2018-11-06T14:38:29.236Z,18
2018-11-06T14:39:18.930Z,18
2018-11-06T14:40:08.494Z,18
2018-11-06T14:41:00.476Z,18
2018-11-06T14:41:49.984Z,18
2018-11-06T14:42:40.716Z,18
2018-11-06T14:43:29.609Z,18
2018-11-06T14:44:20.104Z,18
2018-11-06T14:45:09.332Z,18
2018-11-06T14:45:59.824Z,18
2018-11-06T14:46:50.111Z,18
2018-11-06T14:47:41.156Z,18
2018-11-06T14:48:31.140Z,18
2018-11-06T14:49:22.202Z,18
2018-11-06T14:50:10.736Z,18
2018-11-06T14:51:00.852Z,18
2018-11-06T14:51:50.444Z,18
2018-11-06T14:52:40.409Z,18
2018-11-06T14:53:30.806Z,18
2018-11-06T14:54:20.526Z,18
2018-11-06T14:55:10.906Z,18
2018-11-06T14:56:02.005Z,18
2018-11-06T14:56:51.265Z,18
2018-11-06T14:57:41.958Z,18
2018-11-06T14:58:30.548Z,18
2018-11-06T14:59:22.334Z,18
2018-11-06T15:00:11.228Z,18
2018-11-06T15:01:01.870Z,18
2018-11-06T15:01:51.333Z,18
2018-11-06T15:02:41.520Z,18
2018-11-06T15:03:31.281Z,18
2018-11-06T15:04:19.978Z,17.9
2018-11-06T15:05:11.050Z,18
2018-11-06T15:06:01.456Z,18
2018-11-06T15:06:51.420Z,17.9
2018-11-06T15:07:41.908Z,18
2018-11-06T15:08:30.914Z,18
2018-11-06T15:09:21.026Z,18
2018-11-06T15:10:11.855Z,18
2018-11-06T15:11:01.794Z,17.9
2018-11-06T15:11:51.715Z,18
2018-11-06T15:12:42.712Z,17.9
2018-11-06T15:13:32.779Z,18
2018-11-06T15:14:21.993Z,17.9
2018-11-06T15:15:11.718Z,17.9
2018-11-06T15:16:01.810Z,17.9
2018-11-06T15:16:52.091Z,18
2018-11-06T15:17:42.232Z,17.9
2018-11-06T15:18:32.800Z,18
2018-11-06T15:19:22.272Z,17.9
2018-11-06T15:20:12.612Z,17.9
2018-11-06T15:21:03.770Z,17.9
2018-11-06T15:21:53.281Z,17.9
2018-11-06T15:22:42.784Z,17.9
2018-11-06T15:23:32.527Z,17.9
2018-11-06T15:24:23.233Z,17.9
2018-11-06T15:25:12.739Z,17.9
2018-11-06T15:26:02.454Z,17.9
2018-11-06T15:26:52.860Z,17.9
2018-11-06T15:27:43.122Z,17.9
2018-11-06T15:28:33.639Z,18
2018-11-06T15:29:23.319Z,17.9
2018-11-06T15:30:14.055Z,17.9
2018-11-06T15:31:02.839Z,17.9
2018-11-06T15:31:53.666Z,17.9
2018-11-06T15:32:43.829Z,17.9
2018-11-06T15:33:32.971Z,17.9
2018-11-06T15:34:23.164Z,17.9
2018-11-06T15:35:14.357Z,17.9
2018-11-06T15:36:03.087Z,17.9
2018-11-06T15:36:54.452Z,17.9
2018-11-06T15:37:44.350Z,18
2018-11-06T15:38:34.104Z,17.9
2018-11-06T15:39:24.654Z,18
2018-11-06T15:40:13.209Z,18
2018-11-06T15:41:07.613Z,17.9
2018-11-06T15:41:55.912Z,18